Time;durP1;ratioP1;P1;durP2;ratioP2;P2;SDS_P1;SDS_P2;PMS_P1;PMS_P2;Temp;Humidity;BMP_temperature;BMP_pressure;BME280_temperature;BME280_humidity;BME280_pressure;Samples;Min_cycle;Max_cycle;Signal;HPM_P1;HPM_P2
2022/07/28 00:02:03;;;;;;;;;;;11.20;99.90;;;;;;4870379;29;20046;-96
2022/07/28 00:04:33;;;;;;;0.10;0.10;;;11.10;99.90;;;;;;4855977;29;19924;-96
2022/07/28 00:06:59;;;;;;;0.10;0.10;;;11.10;99.90;;;;;;4840740;29;20124;-96
2022/07/28 00:09:25;;;;;;;0.20;0.20;;;11.10;99.90;;;;;;4845420;29;20050;-96
2022/07/28 00:11:53;;;;;;;0.17;0.17;;;10.30;99.90;;;;;;4877406;29;20053;-93
2022/07/28 00:14:20;;;;;;;0.45;0.20;;;11.10;99.90;;;;;;4886383;29;20052;-96
2022/07/28 00:16:46;;;;;;;0.20;0.17;;;11.00;99.90;;;;;;4871879;29;20053;-96
2022/07/28 00:19:12;;;;;;;0.10;0.10;;;11.00;99.90;;;;;;4861713;29;20058;-96
2022/07/28 00:21:38;;;;;;;0.67;0.10;;;10.90;99.90;;;;;;4873994;29;20200;-93
2022/07/28 00:24:04;;;;;;;0.10;0.10;;;11.00;99.90;;;;;;4886214;29;20113;-96
2022/07/28 00:26:30;;;;;;;0.15;0.15;;;10.10;99.90;;;;;;4879828;29;20110;-92
2022/07/28 00:28:55;;;;;;;0.10;0.10;;;11.00;99.90;;;;;;4883157;29;20052;-96
2022/07/28 00:31:21;;;;;;;0.10;0.10;;;10.90;99.90;;;;;;4874852;29;20109;-96
2022/07/28 00:33:47;;;;;;;0.10;0.10;;;10.60;99.90;;;;;;4847215;29;20117;-87
2022/07/28 00:36:12;;;;;;;0.17;0.17;;;10.80;99.90;;;;;;4830509;29;20131;-87
2022/07/28 00:38:39;;;;;;;0.10;0.10;;;10.70;99.90;;;;;;4846127;29;20045;-87
2022/07/28 00:41:11;;;;;;;0.10;0.10;;;10.80;99.90;;;;;;4830492;29;20244;-87
2022/07/28 00:43:42;;;;;;;0.10;0.10;;;10.70;99.90;;;;;;4845715;29;20049;-87
2022/07/28 00:46:08;;;;;;;0.08;0.08;;;10.80;99.90;;;;;;4845507;29;20068;-87
2022/07/28 00:48:39;;;;;;;0.10;0.10;;;10.70;99.90;;;;;;4846178;29;20053;-87
2022/07/28 00:51:09;;;;;;;0.10;0.10;;;10.00;99.90;;;;;;4845134;29;20462;-87
2022/07/28 00:53:36;;;;;;;0.00;0.00;;;10.00;99.90;;;;;;4845922;29;20132;-87
2022/07/28 00:56:02;;;;;;;0.10;0.10;;;10.70;99.90;;;;;;4861782;29;20420;-87
2022/07/28 00:58:27;;;;;;;0.17;0.17;;;10.70;99.90;;;;;;4830604;29;20062;-87
2022/07/28 01:00:54;;;;;;;0.03;0.03;;;10.70;99.90;;;;;;4845648;29;20048;-86
2022/07/28 01:03:20;;;;;;;0.10;0.10;;;10.70;99.90;;;;;;4845080;29;20051;-87
2022/07/28 01:06:01;;;;;;;0.10;0.10;;;10.60;99.90;;;;;;4845726;29;20400;-87
2022/07/28 01:08:48;;;;;;;0.50;0.40;;;10.70;99.90;;;;;;4845873;29;20052;-87
2022/07/28 01:11:31;;;;;;;0.00;0.00;;;10.60;99.90;;;;;;4845301;29;20166;-87
2022/07/28 01:14:16;;;;;;;0.10;0.10;;;10.60;99.90;;;;;;4845196;29;20084;-89
2022/07/28 01:17:12;;;;;;;0.30;0.20;;;10.60;99.90;;;;;;4829818;29;20489;-87
2022/07/28 01:19:49;;;;;;;0.08;0.08;;;10.50;99.90;;;;;;4844643;29;20057;-86
2022/07/28 01:22:20;;;;;;;0.03;0.03;;;10.50;99.90;;;;;;4845034;29;20053;-87
2022/07/28 01:24:55;;;;;;;0.05;0.05;;;10.50;99.90;;;;;;4844837;29;20094;-86
2022/07/28 01:27:44;;;;;;;0.45;0.10;;;10.40;99.90;;;;;;4844787;29;20138;-87
2022/07/28 01:30:33;;;;;;;0.10;0.10;;;10.50;99.90;;;;;;4829802;29;20057;-87
2022/07/28 01:33:19;;;;;;;0.10;0.10;;;10.40;99.90;;;;;;4844870;29;20109;-89
2022/07/28 01:35:56;;;;;;;0.10;0.10;;;10.40;99.90;;;;;;4844900;29;20045;-87
2022/07/28 01:38:23;;;;;;;0.08;0.08;;;10.40;99.90;;;;;;4844780;29;20115;-87
2022/07/28 01:40:52;;;;;;;0.30;0.20;;;10.40;99.90;;;;;;4844980;29;20485;-87
2022/07/28 01:43:23;;;;;;;0.25;0.15;;;10.40;99.90;;;;;;4829182;29;20420;-87
2022/07/28 01:45:49;;;;;;;0.03;0.03;;;10.40;99.90;;;;;;4844443;29;20132;-87
2022/07/28 01:48:17;;;;;;;0.08;0.08;;;10.40;99.90;;;;;;4844437;29;20159;-87
2022/07/28 01:50:46;;;;;;;0.13;0.13;;;10.40;99.90;;;;;;4844448;29;20097;-87
2022/07/28 01:53:14;;;;;;;0.35;0.10;;;10.30;99.90;;;;;;4844490;29;20136;-87
2022/07/28 01:55:45;;;;;;;0.30;0.17;;;10.30;99.90;;;;;;4844676;29;20057;-87
2022/07/28 01:58:13;;;;;;;0.25;0.10;;;10.30;99.90;;;;;;4843526;29;20073;-87
2022/07/28 02:00:40;;;;;;;0.13;0.10;;;10.20;99.90;;;;;;4844872;29;20120;-87
2022/07/28 02:03:07;;;;;;;0.10;0.10;;;10.20;99.90;;;;;;4843932;29;20056;-88
2022/07/28 02:05:33;;;;;;;;;;;10.10;99.90;;;;;;4844798;29;20112;-87
2022/07/28 02:08:01;;;;;;;0.32;0.10;;;10.20;99.90;;;;;;4844424;29;20022;-86
2022/07/28 02:10:28;;;;;;;0.10;0.10;;;10.20;99.90;;;;;;4844019;29;20049;-87
2022/07/28 02:12:55;;;;;;;0.03;0.03;;;10.10;99.90;;;;;;4844277;29;20615;-86
2022/07/28 02:15:21;;;;;;;;;;;10.10;99.90;;;;;;4844248;29;20057;-86
2022/07/28 02:17:48;;;;;;;0.03;0.03;;;10.10;99.90;;;;;;4844429;29;19927;-87
2022/07/28 02:20:16;;;;;;;0.20;0.20;;;10.10;99.90;;;;;;4843999;29;20052;-87
2022/07/28 02:22:43;;;;;;;0.10;0.10;;;10.10;99.90;;;;;;4844370;29;20063;-87
2022/07/28 02:25:12;;;;;;;0.10;0.10;;;10.10;99.90;;;;;;4843666;29;20102;-89
2022/07/28 02:27:41;;;;;;;0.30;0.13;;;10.10;99.90;;;;;;4844360;29;20050;-87
2022/07/28 02:30:39;;;;;;;0.15;0.15;;;10.90;99.90;;;;;;4859791;29;20395;-86
2022/07/28 02:33:15;;;;;;;0.10;0.10;;;10.10;99.90;;;;;;4818465;29;20109;-87
2022/07/28 02:36:08;;;;;;;0.20;0.20;;;10.10;99.90;;;;;;4844388;29;20045;-87
2022/07/28 02:38:44;;;;;;;1.40;0.20;;;10.10;99.90;;;;;;4843383;29;20101;-87
2022/07/28 02:41:16;;;;;;;0.10;0.10;;;10.00;99.90;;;;;;4844176;29;20086;-89
2022/07/28 02:43:45;;;;;;;0.00;0.00;;;10.00;99.90;;;;;;4844264;29;20050;-86
2022/07/28 02:46:15;;;;;;;0.10;0.10;;;10.00;99.90;;;;;;4843799;29;20400;-89
2022/07/28 02:48:46;;;;;;;0.13;0.10;;;10.00;99.90;;;;;;4846937;29;20084;-87
2022/07/28 02:51:13;;;;;;;0.20;0.20;;;9.90;99.90;;;;;;4847642;29;20416;-88
2022/07/28 02:53:39;;;;;;;0.15;0.15;;;9.90;99.90;;;;;;4847838;29;20059;-86
2022/07/28 02:56:07;;;;;;;0.30;0.10;;;10.50;99.90;;;;;;4863054;29;20145;-87
2022/07/28 02:58:35;;;;;;;0.00;0.00;;;9.80;99.90;;;;;;4847329;29;20052;-87
2022/07/28 03:01:04;;;;;;;0.10;0.10;;;9.80;99.90;;;;;;4847783;29;20064;-87
2022/07/28 03:03:32;;;;;;;0.30;0.13;;;9.80;99.90;;;;;;4847204;29;20057;-86
2022/07/28 03:05:58;;;;;;;0.00;0.00;;;9.80;99.90;;;;;;4847494;29;20057;-86
2022/07/28 03:08:24;;;;;;;0.20;0.20;;;9.70;99.90;;;;;;4846849;29;20049;-87
2022/07/28 03:11:04;;;;;;;0.43;0.20;;;9.70;99.90;;;;;;4832058;29;20057;-86
2022/07/28 03:13:30;;;;;;;0.05;0.05;;;9.60;99.90;;;;;;4847251;29;20061;-86
2022/07/28 03:15:56;;;;;;;0.10;0.00;;;9.60;99.90;;;;;;4847575;29;20056;-86
2022/07/28 03:18:23;;;;;;;0.50;0.17;;;10.00;99.90;;;;;;4846925;29;20049;-87
2022/07/28 03:20:49;;;;;;;0.10;0.10;;;9.70;99.90;;;;;;4832127;29;20053;-86
2022/07/28 03:23:15;;;;;;;0.00;0.00;;;9.60;99.90;;;;;;4832005;29;20396;-88
2022/07/28 03:25:49;;;;;;;0.10;0.10;;;9.50;99.90;;;;;;4847273;29;20045;-87
2022/07/28 03:28:18;;;;;;;0.52;0.10;;;9.50;99.90;;;;;;4847075;29;20121;-86
2022/07/28 03:30:54;;;;;;;0.10;0.10;;;9.50;99.90;;;;;;4847150;29;20063;-86
2022/07/28 03:33:20;;;;;;;0.10;0.10;;;9.90;99.90;;;;;;4846898;29;20132;-86
2022/07/28 03:35:50;;;;;;;0.40;0.40;;;9.40;99.90;;;;;;4847306;29;20458;-86
2022/07/28 03:38:50;;;;;;;0.35;0.17;;;9.40;99.90;;;;;;4846981;29;20042;-86
2022/07/28 03:41:18;;;;;;;0.38;0.28;;;9.40;99.90;;;;;;4847234;29;20610;-87
2022/07/28 03:43:44;;;;;;;0.10;0.10;;;9.30;99.90;;;;;;4831361;29;20500;-86
2022/07/28 03:46:11;;;;;;;0.52;0.30;;;9.40;99.90;;;;;;4846851;29;20053;-87
2022/07/28 03:48:37;;;;;;;0.10;0.10;;;9.60;99.90;;;;;;4846509;29;20060;-86
2022/07/28 03:51:03;;;;;;;0.10;0.03;;;9.30;99.90;;;;;;4831310;29;20058;-86
2022/07/28 03:53:29;;;;;;;0.13;0.13;;;9.30;99.90;;;;;;4846313;29;20053;-87
2022/07/28 03:55:55;;;;;;;0.10;0.10;;;9.30;99.90;;;;;;4846718;29;20140;-86
2022/07/28 03:58:22;;;;;;;;;;;9.30;99.90;;;;;;4846811;29;20106;-88
2022/07/28 04:00:48;;;;;;;0.05;0.00;;;9.30;99.90;;;;;;4846747;29;20427;-86
2022/07/28 04:03:15;;;;;;;0.30;0.30;;;9.30;99.90;;;;;;4846729;29;20045;-86
2022/07/28 04:05:40;;;;;;;0.10;0.10;;;9.30;99.90;;;;;;4846318;29;20074;-86
2022/07/28 04:08:06;;;;;;;0.10;0.10;;;9.40;99.90;;;;;;4831227;29;20050;-86
2022/07/28 04:10:32;;;;;;;0.27;0.13;;;9.30;99.90;;;;;;4846235;29;20053;-86
2022/07/28 04:12:58;;;;;;;0.20;0.20;;;9.40;99.90;;;;;;4846583;29;20041;-86
2022/07/28 04:15:26;;;;;;;0.28;0.20;;;9.20;99.90;;;;;;4846230;29;20109;-89
2022/07/28 04:17:53;;;;;;;0.32;0.20;;;9.90;99.90;;;;;;4846199;29;20096;-86
2022/07/28 04:20:21;;;;;;;0.30;0.20;;;9.20;99.90;;;;;;4846444;29;20101;-86
2022/07/28 04:22:49;;;;;;;0.28;0.20;;;9.20;99.90;;;;;;4830586;29;20053;-86
2022/07/28 04:25:16;;;;;;;0.08;0.00;;;9.90;99.90;;;;;;4846190;29;20052;-86
2022/07/28 04:27:42;;;;;;;0.20;0.20;;;9.20;99.90;;;;;;4845683;29;20058;-86
2022/07/28 04:30:12;;;;;;;0.00;0.00;;;9.10;99.90;;;;;;4846145;29;20062;-86
2022/07/28 04:32:38;;;;;;;0.10;0.10;;;9.10;99.90;;;;;;4845859;29;20060;-86
2022/07/28 04:35:06;;;;;;;0.20;0.20;;;9.80;99.90;;;;;;4846198;29;20060;-86
2022/07/28 04:37:32;;;;;;;0.20;0.10;;;9.20;99.90;;;;;;4845272;29;20050;-87
2022/07/28 04:39:57;;;;;;;0.30;0.20;;;9.30;99.90;;;;;;4831162;29;20264;-86
2022/07/28 04:42:24;;;;;;;0.10;0.10;;;9.40;99.90;;;;;;4830592;29;20049;-86
2022/07/28 04:44:50;;;;;;;0.17;0.17;;;9.50;99.90;;;;;;4845387;29;20045;-86
2022/07/28 04:47:15;;;;;;;0.40;0.40;;;9.50;99.90;;;;;;4845868;29;20111;-86
2022/07/28 04:49:41;;;;;;;0.10;0.10;;;9.60;99.90;;;;;;4860234;29;20068;-86
2022/07/28 04:52:07;;;;;;;0.10;0.10;;;9.70;99.90;;;;;;4845843;29;20140;-86
2022/07/28 04:54:34;;;;;;;0.10;0.10;;;9.70;99.90;;;;;;4845470;29;20113;-87
2022/07/28 04:57:00;;;;;;;0.17;0.10;;;9.80;99.90;;;;;;4845318;29;20069;-86
2022/07/28 04:59:26;;;;;;;0.20;0.10;;;9.80;99.90;;;;;;4845376;29;20049;-86
2022/07/28 05:01:52;;;;;;;0.20;0.20;;;9.90;99.90;;;;;;4845376;29;20049;-86
2022/07/28 05:04:18;;;;;;;0.13;0.13;;;10.00;99.90;;;;;;4845521;29;20069;-86
2022/07/28 05:06:44;;;;;;;0.00;0.00;;;10.00;99.90;;;;;;4845337;29;20152;-86
2022/07/28 05:09:11;;;;;;;0.00;0.00;;;10.10;99.90;;;;;;4844941;29;20493;-86
2022/07/28 05:11:36;;;;;;;0.13;0.10;;;10.40;99.90;;;;;;4829506;29;20113;-87
2022/07/28 05:14:02;;;;;;;0.47;0.20;;;10.30;99.90;;;;;;4830080;29;20453;-86
2022/07/28 05:16:28;;;;;;;0.10;0.10;;;10.30;99.90;;;;;;4830322;29;20054;-86
2022/07/28 05:18:53;;;;;;;0.10;0.10;;;11.00;99.90;;;;;;4844800;29;20085;-86
2022/07/28 05:21:19;;;;;;;0.10;0.10;;;10.40;99.90;;;;;;4830542;29;20564;-86
2022/07/28 05:23:45;;;;;;;0.10;0.10;;;10.50;99.90;;;;;;4844913;29;20038;-86
2022/07/28 05:26:10;;;;;;;0.10;0.10;;;10.60;99.90;;;;;;4844915;29;20041;-86
2022/07/28 05:28:36;;;;;;;1.20;0.00;;;10.70;99.90;;;;;;4844178;29;20556;-86
2022/07/28 05:31:02;;;;;;;0.50;0.40;;;10.80;99.90;;;;;;4845564;29;20064;-86
2022/07/28 05:33:28;;;;;;;0.20;0.10;;;10.80;99.90;;;;;;4829774;29;20137;-86
2022/07/28 05:35:56;;;;;;;0.10;0.10;;;10.90;99.90;;;;;;4829708;29;20132;-86
2022/07/28 05:38:22;;;;;;;0.20;0.10;;;11.00;99.90;;;;;;4829860;29;20052;-86
2022/07/28 05:40:49;;;;;;;0.10;0.00;;;11.10;99.90;;;;;;4844635;29;20086;-86
2022/07/28 05:43:14;;;;;;;0.10;0.10;;;11.10;99.90;;;;;;4844889;29;20531;-86
2022/07/28 05:45:43;;;;;;;0.20;0.20;;;11.20;99.90;;;;;;4844714;29;20089;-87
2022/07/28 05:48:09;;;;;;;0.10;0.10;;;11.20;99.90;;;;;;4844988;29;20050;-86
2022/07/28 05:50:35;;;;;;;0.17;0.17;;;11.30;99.90;;;;;;4844470;29;20409;-86
2022/07/28 05:53:03;;;;;;;0.10;0.10;;;11.40;99.90;;;;;;4844253;29;20104;-87
2022/07/28 05:55:29;;;;;;;0.22;0.17;;;11.50;99.90;;;;;;4844558;29;20136;-86
2022/07/28 05:57:57;;;;;;;0.00;0.00;;;11.50;99.90;;;;;;4844047;29;20124;-87
2022/07/28 06:00:23;;;;;;;0.08;0.08;;;10.50;99.90;;;;;;4844567;29;20053;-87
2022/07/28 06:02:49;;;;;;;0.10;0.10;;;11.60;99.90;;;;;;4844274;29;20146;-87
2022/07/28 06:05:17;;;;;;;0.47;0.10;;;11.70;99.90;;;;;;4844366;29;20037;-86
2022/07/28 06:07:44;;;;;;;0.10;0.10;;;11.80;99.90;;;;;;4843888;29;20057;-87
2022/07/28 06:10:15;;;;;;;0.25;0.13;;;11.80;99.90;;;;;;4844224;29;20057;-87
2022/07/28 06:12:46;;;;;;;0.00;0.00;;;11.90;99.90;;;;;;4844356;29;20056;-89
2022/07/28 06:15:25;;;;;;;0.13;0.10;;;12.00;99.90;;;;;;4844317;29;20042;-86
2022/07/28 06:17:53;;;;;;;0.10;0.10;;;12.10;99.90;;;;;;4844280;29;20053;-87
2022/07/28 06:20:21;;;;;;;0.40;0.20;;;12.10;99.90;;;;;;4844120;29;20510;-86
2022/07/28 06:22:52;;;;;;;0.10;0.10;;;12.20;99.90;;;;;;4843688;29;20057;-87
2022/07/28 06:25:21;;;;;;;0.00;0.00;;;12.30;99.90;;;;;;4844218;29;20049;-96
2022/07/28 06:27:53;;;;;;;0.20;0.17;;;12.30;99.90;;;;;;4831979;29;20435;-92
2022/07/28 06:30:23;;;;;;;0.63;0.20;;;12.40;99.90;;;;;;4844380;29;20053;-93
2022/07/28 06:32:49;;;;;;;0.10;0.03;;;11.80;99.90;;;;;;4844711;29;20374;-91
2022/07/28 06:35:18;;;;;;;;;;;12.40;99.90;;;;;;4845109;29;20140;-90
2022/07/28 06:37:50;;;;;;;0.10;0.05;;;12.70;99.90;;;;;;4829183;29;20326;-92
2022/07/28 06:40:20;;;;;;;0.10;0.10;;;12.80;99.90;;;;;;4829225;29;20476;-91
2022/07/28 06:42:49;;;;;;;0.10;0.10;;;12.80;99.90;;;;;;4859701;29;20060;-90
2022/07/28 06:45:15;;;;;;;0.00;0.00;;;13.50;99.90;;;;;;4844036;29;20049;-90
2022/07/28 06:47:41;;;;;;;0.10;0.10;;;13.00;99.90;;;;;;4844460;29;20081;-91
2022/07/28 06:50:07;;;;;;;0.10;0.10;;;13.10;99.90;;;;;;4843505;29;20097;-90
2022/07/28 06:52:36;;;;;;;0.08;0.08;;;13.20;99.90;;;;;;4830407;29;20656;-92
2022/07/28 06:55:03;;;;;;;0.10;0.10;;;13.20;99.90;;;;;;4844949;29;20424;-96
2022/07/28 06:57:32;;;;;;;0.10;0.10;;;13.30;99.90;;;;;;4845190;29;20132;-96
2022/07/28 07:00:02;;;;;;;0.00;0.00;;;13.50;99.90;;;;;;4845118;29;20573;-96
2022/07/28 07:02:28;;;;;;;0.10;0.10;;;13.60;99.90;;;;;;4846606;29;20136;-95
2022/07/28 07:04:54;;;;;;;0.20;0.10;;;13.60;99.90;;;;;;4846374;29;20085;-96
2022/07/28 07:07:21;;;;;;;0.10;0.10;;;13.70;99.90;;;;;;4847039;29;20050;-96
2022/07/28 07:10:15;;;;;;;0.00;0.00;;;13.80;99.90;;;;;;4845851;29;20082;-95
2022/07/28 07:13:03;;;;;;;0.17;0.17;;;13.80;99.90;;;;;;4846383;29;20060;-87
2022/07/28 07:15:32;;;;;;;0.10;0.10;;;14.00;99.90;;;;;;4848715;29;20054;-96
2022/07/28 07:17:58;;;;;;;0.00;0.00;;;14.10;99.90;;;;;;4845850;29;20049;-93
2022/07/28 07:20:23;;;;;;;0.00;0.00;;;14.10;99.90;;;;;;4845179;29;20101;-87
2022/07/28 07:22:52;;;;;;;0.10;0.10;;;14.10;99.90;;;;;;4845418;29;20068;-96
2022/07/28 07:25:23;;;;;;;0.03;0.03;;;14.30;99.90;;;;;;4845061;29;20050;-95
2022/07/28 07:27:49;;;;;;;0.25;0.13;;;14.20;99.90;;;;;;4845094;29;20054;-96
2022/07/28 07:30:17;;;;;;;0.10;0.10;;;14.30;99.90;;;;;;4844677;29;20109;-95
2022/07/28 07:32:48;;;;;;;0.08;0.08;;;14.30;99.90;;;;;;4846762;29;20042;-96
2022/07/28 07:35:18;;;;;;;0.17;0.15;;;14.40;99.90;;;;;;4855297;29;20191;-96
2022/07/28 07:37:47;;;;;;;0.10;0.10;;;14.50;99.90;;;;;;4837790;29;20060;-96
2022/07/28 07:40:15;;;;;;;0.00;0.00;;;14.60;99.90;;;;;;4853738;29;20140;-96
2022/07/28 07:42:43;;;;;;;0.00;0.00;;;14.60;99.90;;;;;;5119719;24;20069;-95
2022/07/28 07:45:56;;;;;;;0.00;0.00;;;14.80;99.90;;;;;;4833786;29;20050;-96
2022/07/28 07:48:22;;;;;;;0.00;0.00;;;14.80;99.90;;;;;;4825628;29;20049;-96
2022/07/28 07:50:51;;;;;;;0.00;0.00;;;15.00;99.90;;;;;;4812296;29;20095;-96
2022/07/28 07:53:17;;;;;;;0.30;0.10;;;15.20;99.90;;;;;;4832784;29;20053;-96
2022/07/28 07:55:50;;;;;;;0.00;0.00;;;15.30;99.90;;;;;;4834712;29;20060;-96
2022/07/28 08:02:22;;;;;;;0.13;0.13;;;15.70;99.90;;;;;;4848396;29;20082;-96
2022/07/28 08:04:59;;;;;;;0.00;0.00;;;15.50;99.90;;;;;;5137858;23;20187;-96
2022/07/28 08:07:25;;;;;;;0.00;0.00;;;15.20;99.90;;;;;;4851209;29;20219;-96
2022/07/28 08:12:58;;;;;;;0.00;0.00;;;15.50;99.90;;;;;;4879276;29;20485;-96
2022/07/28 08:15:26;;;;;;;0.50;0.00;;;15.50;99.90;;;;;;4832192;29;20060;-93
2022/07/28 08:17:54;;;;;;;0.05;0.05;;;15.50;99.90;;;;;;4832705;29;20056;-96
2022/07/28 08:20:20;;;;;;;0.00;0.00;;;14.60;99.90;;;;;;4831039;29;20136;-96
2022/07/28 08:22:53;;;;;;;0.00;0.00;;;14.80;99.90;;;;;;4845695;29;20191;-95
2022/07/28 08:25:19;;;;;;;0.00;0.00;;;15.40;99.90;;;;;;4855451;29;20102;-96
2022/07/28 08:27:45;;;;;;;0.22;0.22;;;15.30;99.90;;;;;;4844843;29;20042;-92
2022/07/28 08:30:15;;;;;;;0.10;0.10;;;15.30;99.90;;;;;;4844924;29;20041;-95
2022/07/28 08:32:44;;;;;;;0.10;0.10;;;15.30;99.90;;;;;;4844973;29;20046;-95
2022/07/28 08:35:28;;;;;;;0.00;0.00;;;15.30;99.90;;;;;;4830945;29;20046;-96
2022/07/28 08:37:57;;;;;;;0.10;0.10;;;15.30;99.90;;;;;;4847417;29;20045;-96
2022/07/28 08:40:31;;;;;;;0.10;0.10;;;15.40;99.90;;;;;;4817882;29;20055;-94
2022/07/28 08:47:09;;;;;;;0.47;0.00;;;15.50;99.90;;;;;;4803346;29;20113;-95
2022/07/28 08:49:50;;;;;;;0.60;0.00;;;15.70;99.90;;;;;;4832014;29;20049;-96
2022/07/28 08:52:18;;;;;;;0.10;0.10;;;15.70;99.90;;;;;;4831311;29;20049;-91
2022/07/28 08:55:03;;;;;;;0.20;0.10;;;15.90;99.90;;;;;;4836152;29;20060;-96
2022/07/28 08:57:33;;;;;;;0.00;0.00;;;15.20;99.90;;;;;;4849041;29;20042;-90
2022/07/28 09:00:06;;;;;;;0.00;0.00;;;16.30;99.90;;;;;;4837008;29;20084;-91
2022/07/28 09:02:34;;;;;;;0.00;0.00;;;16.30;99.90;;;;;;4832622;29;20057;-92
2022/07/28 09:05:03;;;;;;;0.10;0.10;;;16.40;99.90;;;;;;4814551;29;20058;-95
2022/07/28 09:11:10;;;;;;;0.00;0.00;;;16.60;99.90;;;;;;4852294;29;20061;-93
2022/07/28 09:13:36;;;;;;;0.00;0.00;;;16.70;99.90;;;;;;4827760;29;20057;-88
2022/07/28 09:16:02;;;;;;;0.10;0.10;;;16.80;99.90;;;;;;4842501;29;20054;-88
2022/07/28 09:18:28;;;;;;;;;;;16.90;99.90;;;;;;4844791;29;20140;-88
2022/07/28 09:20:54;;;;;;;0.75;0.28;;;17.00;99.90;;;;;;4860832;29;20327;-88
2022/07/28 09:23:22;;;;;;;0.10;0.10;;;17.00;99.90;;;;;;4858753;29;20057;-88
2022/07/28 09:25:48;;;;;;;0.10;0.10;;;17.10;99.90;;;;;;4845058;29;20152;-94
2022/07/28 09:28:15;;;;;;;0.00;0.00;;;17.10;99.90;;;;;;4827738;29;20537;-88
2022/07/28 09:30:48;;;;;;;0.00;0.00;;;17.10;99.90;;;;;;4813501;29;20058;-88
2022/07/28 09:33:23;;;;;;;0.00;0.00;;;17.20;99.90;;;;;;4857346;29;20561;-89
2022/07/28 09:35:52;;;;;;;0.00;0.00;;;17.20;99.90;;;;;;4857491;29;20082;-90
2022/07/28 09:38:19;;;;;;;0.28;0.08;;;17.30;99.90;;;;;;4811455;29;20102;-89
2022/07/28 09:41:03;;;;;;;0.43;0.10;;;17.30;99.90;;;;;;4829497;29;20037;-90
2022/07/28 09:43:43;;;;;;;0.15;0.13;;;17.40;99.90;;;;;;4829327;29;20477;-90
2022/07/28 09:46:23;;;;;;;0.08;0.08;;;17.40;99.90;;;;;;4844872;29;20053;-93
2022/07/28 09:48:49;;;;;;;0.10;0.10;;;17.40;99.90;;;;;;4873540;29;20116;-91
2022/07/28 09:51:34;;;;;;;0.20;0.20;;;17.40;99.90;;;;;;4826696;29;20137;-91
2022/07/28 09:54:10;;;;;;;0.08;0.08;;;17.30;99.90;;;;;;4842428;29;20488;-88
2022/07/28 09:56:40;;;;;;;0.05;0.05;;;17.30;99.90;;;;;;4844207;29;20369;-86
2022/07/28 09:59:07;;;;;;;0.00;0.00;;;17.20;99.90;;;;;;4843371;29;20500;-92
2022/07/28 10:01:48;;;;;;;0.10;0.00;;;17.20;99.90;;;;;;4859946;29;20058;-92
2022/07/28 10:04:14;;;;;;;0.03;0.03;;;17.10;99.90;;;;;;4829721;29;20041;-90
2022/07/28 10:06:43;;;;;;;0.43;0.10;;;16.20;99.90;;;;;;4821323;29;20050;-91
2022/07/28 10:09:13;;;;;;;0.20;0.10;;;17.20;99.90;;;;;;4822959;29;20073;-90
2022/07/28 10:11:38;;;;;;;0.00;0.00;;;17.10;99.90;;;;;;4816239;29;20489;-90
2022/07/28 10:14:06;;;;;;;0.10;0.10;;;17.10;99.90;;;;;;4858747;29;20065;-90
2022/07/28 10:16:37;;;;;;;0.00;0.00;;;17.00;99.90;;;;;;4859067;29;20136;-89
2022/07/28 10:19:04;;;;;;;0.10;0.10;;;17.00;99.90;;;;;;4829361;29;20056;-90
2022/07/28 10:21:33;;;;;;;0.10;0.10;;;17.70;99.90;;;;;;4838564;29;20057;-90
2022/07/28 10:24:04;;;;;;;0.00;0.00;;;17.00;99.90;;;;;;4831591;29;20193;-89
2022/07/28 10:26:34;;;;;;;0.10;0.10;;;17.00;99.90;;;;;;4834058;29;20053;-89
2022/07/28 10:29:07;;;;;;;0.45;0.13;;;17.00;99.90;;;;;;4844602;29;20049;-91
2022/07/28 10:31:40;;;;;;;0.08;0.08;;;17.00;99.90;;;;;;4843429;29;20041;-90
2022/07/28 10:34:12;;;;;;;0.43;0.40;;;17.00;99.90;;;;;;4828865;29;20412;-90
2022/07/28 10:36:38;;;;;;;0.20;0.20;;;17.00;99.90;;;;;;4828204;29;20085;-90
2022/07/28 10:39:20;;;;;;;0.10;0.10;;;17.00;99.90;;;;;;4853581;29;20053;-92
2022/07/28 10:41:47;;;;;;;0.00;0.00;;;17.00;99.90;;;;;;4862457;29;20133;-92
2022/07/28 10:44:17;;;;;;;;;;;17.00;99.90;;;;;;4857430;29;20052;-96
2022/07/28 10:46:46;;;;;;;0.20;0.20;;;17.20;99.90;;;;;;4863326;29;19948;-92
2022/07/28 10:49:13;;;;;;;0.08;0.08;;;17.30;99.90;;;;;;4874738;29;20100;-90
2022/07/28 10:51:42;;;;;;;0.65;0.10;;;17.40;99.90;;;;;;4855977;29;20505;-90
2022/07/28 10:54:13;;;;;;;0.00;0.00;;;17.60;99.90;;;;;;4817563;29;20061;-90
2022/07/28 10:57:00;;;;;;;0.30;0.20;;;17.90;99.90;;;;;;4830480;29;20058;-91
2022/07/28 10:59:52;;;;;;;0.10;0.10;;;17.90;99.90;;;;;;4825101;29;20050;-94
2022/07/28 11:02:49;;;;;;;0.00;0.00;;;18.00;99.90;;;;;;4843184;29;20058;-91
2022/07/28 11:05:35;;;;;;;0.00;0.00;;;18.20;99.90;;;;;;4845217;29;20072;-87
2022/07/28 11:08:08;;;;;;;0.00;0.00;;;18.30;99.90;;;;;;4865649;29;20061;-89
2022/07/28 11:10:48;;;;;;;0.10;0.10;;;18.30;99.90;;;;;;4832047;29;20064;-90
2022/07/28 11:13:34;;;;;;;0.00;0.00;;;18.40;99.90;;;;;;4815758;29;20058;-91
2022/07/28 11:16:15;;;;;;;0.05;0.03;;;18.50;99.90;;;;;;4861658;29;20157;-96
2022/07/28 11:19:10;;;;;;;0.20;0.10;;;18.50;99.90;;;;;;4814129;29;20049;-89
2022/07/28 11:29:09;;;;;;;0.10;0.10;;;18.80;99.90;;;;;;4844351;29;20058;-90
2022/07/28 11:31:47;;;;;;;0.15;0.10;;;18.60;99.90;;;;;;4812481;29;20060;-90
2022/07/28 11:34:17;;;;;;;0.75;0.10;;;18.80;99.90;;;;;;4813683;29;20061;-90
2022/07/28 11:37:11;;;;;;;0.00;0.00;;;18.80;99.90;;;;;;4813643;29;20136;-90
2022/07/28 11:39:39;;;;;;;0.10;0.10;;;18.90;99.90;;;;;;4821572;29;20041;-90
2022/07/28 11:42:25;;;;;;;0.00;0.00;;;19.00;99.90;;;;;;4829188;29;20070;-90
2022/07/28 11:44:51;;;;;;;0.10;0.10;;;19.00;99.90;;;;;;4845476;29;20048;-90
2022/07/28 11:47:22;;;;;;;0.10;0.10;;;19.10;99.90;;;;;;4845569;29;20057;-91
2022/07/28 11:50:14;;;;;;;0.10;0.10;;;19.00;99.90;;;;;;4829799;29;20053;-90
2022/07/28 11:52:52;;;;;;;0.10;0.10;;;19.00;99.90;;;;;;4845635;29;20089;-90
2022/07/28 11:55:18;;;;;;;0.10;0.10;;;19.00;99.90;;;;;;4841081;29;20395;-90
2022/07/28 11:57:45;;;;;;;0.08;0.08;;;19.00;99.90;;;;;;4861025;29;20053;-90
2022/07/28 12:00:11;;;;;;;;;;;19.00;99.90;;;;;;4859628;29;20374;-91
2022/07/28 12:02:40;;;;;;;0.00;0.00;;;19.00;99.90;;;;;;4851140;29;19983;-91
2022/07/28 12:05:09;;;;;;;0.10;0.10;;;19.00;99.90;;;;;;4828689;29;20417;-91
2022/07/28 12:07:38;;;;;;;0.15;0.15;;;19.10;99.90;;;;;;4855449;29;20088;-90
2022/07/28 12:10:31;;;;;;;0.00;0.00;;;19.20;99.90;;;;;;4828659;29;20060;-91
2022/07/28 12:13:06;;;;;;;0.00;0.00;;;19.40;99.90;;;;;;4843956;29;20140;-90
2022/07/28 12:15:33;;;;;;;0.00;0.00;;;19.40;99.90;;;;;;4841139;29;20637;-91
2022/07/28 12:18:00;;;;;;;0.00;0.00;;;19.30;99.90;;;;;;4830264;29;20049;-90
2022/07/28 12:20:30;;;;;;;;;;;19.30;99.90;;;;;;4830247;29;20056;-92
2022/07/28 12:23:01;;;;;;;0.40;0.20;;;19.20;99.90;;;;;;4845405;29;19924;-89
2022/07/28 12:25:38;;;;;;;0.10;0.10;;;19.20;99.90;;;;;;4830153;29;20401;-90
2022/07/28 12:28:21;;;;;;;0.00;0.00;;;19.20;99.90;;;;;;4830749;29;20054;-91
2022/07/28 12:30:50;;;;;;;0.00;0.00;;;19.30;99.90;;;;;;4861124;29;20082;-90
2022/07/28 12:33:23;;;;;;;0.10;0.10;;;19.30;99.90;;;;;;4816082;29;20093;-90
2022/07/28 12:35:53;;;;;;;0.00;0.00;;;18.60;99.90;;;;;;4846100;29;20065;-90
2022/07/28 12:38:25;;;;;;;0.22;0.20;;;19.50;99.90;;;;;;4861639;29;20049;-90
2022/07/28 12:40:52;;;;;;;0.32;0.13;;;19.60;99.90;;;;;;4830614;29;20053;-90
2022/07/28 12:43:24;;;;;;;0.50;0.20;;;19.60;99.90;;;;;;4846130;29;20054;-90
2022/07/28 12:45:51;;;;;;;0.15;0.15;;;19.70;99.90;;;;;;4830710;29;20053;-91
2022/07/28 12:48:20;;;;;;;0.10;0.08;;;19.70;99.90;;;;;;4862773;29;20060;-94
2022/07/28 12:50:48;;;;;;;0.00;0.00;;;19.80;99.90;;;;;;4832834;29;20050;-96
2022/07/28 12:54:00;;;;;;;0.00;0.00;;;19.60;99.90;;;;;;4849000;29;20049;-96
2022/07/28 12:56:29;;;;;;;0.00;0.00;;;19.80;99.90;;;;;;4832462;29;20136;-96
2022/07/28 12:59:16;;;;;;;0.08;0.00;;;19.60;99.90;;;;;;4834844;29;20045;-94
2022/07/28 13:01:56;;;;;;;0.00;0.00;;;19.60;99.90;;;;;;4831344;29;20116;-93
2022/07/28 13:04:43;;;;;;;0.10;0.10;;;19.50;99.90;;;;;;4858520;29;20042;-94
2022/07/28 13:07:22;;;;;;;0.08;0.08;;;19.50;99.90;;;;;;4830454;29;20061;-94
2022/07/28 13:10:00;;;;;;;0.00;0.00;;;19.70;99.90;;;;;;4831570;29;20045;-95
2022/07/28 13:12:29;;;;;;;0.20;0.20;;;19.40;99.90;;;;;;4829842;29;20052;-94
2022/07/28 13:14:57;;;;;;;0.00;0.00;;;19.50;99.90;;;;;;4829466;29;20042;-93
2022/07/28 13:17:30;;;;;;;0.10;0.10;;;19.60;99.90;;;;;;4852395;29;20050;-93
2022/07/28 13:20:13;;;;;;;0.00;0.00;;;19.70;99.90;;;;;;4828032;29;20060;-93
2022/07/28 13:22:39;;;;;;;0.00;0.00;;;19.80;99.90;;;;;;4829523;29;20174;-94
2022/07/28 13:25:08;;;;;;;;;;;19.90;99.90;;;;;;4829241;29;20111;-94
2022/07/28 13:27:39;;;;;;;0.10;0.10;;;20.10;99.90;;;;;;4844409;29;20022;-92
2022/07/28 13:30:07;;;;;;;0.15;0.10;;;20.20;99.90;;;;;;4829480;29;20060;-93
2022/07/28 13:32:32;;;;;;;0.13;0.13;;;20.30;99.90;;;;;;4824360;29;20512;-92